Warroad, MN (56763)

2:29 AM CDT on September 05, 2015 (GMT -0500)
Warroad International-Carlson | | Change Station
CLOSE
Current Station
Airport
Location: Warroad,
Elevation: 1073 ft
Nearby Weather Stations

Elev 1073 ft 48.94 °N, 95.35 °W | Updated 15 minutes ago

Clear
Clear
64 °F
Feels Like 64 °F
N
0
Wind Variable Wind from North

Today
High -- | Low -- °F
--% Chance of Precip.
Yesterday
High -- | Low -- °F
Precip. -- in
6:43 AM 7:55 PM
Waning Gibbous, 51% visible
Pressure 29.91 in
Visibility 7.0 miles
Clouds Clear
Dew Point 61 °F
Humidity 88%
Rainfall 0.00 in
Snow Depth Not available.
UV 0 out of 12
Pollen 9.80 out of 12
Air Quality Not available.
Flu Activity Not available.
METAR KRRT 050714Z AUTO 00000KT 7SM CLR 18/16 A2991 RMK AO2
Pressure 29.91 in
Visibility 7.0 miles
Clouds Clear
Dew Point 61 °F
Humidity 88%
Rainfall 0.00 in
Snow Depth Not available.
UV 0 out of 12
Pollen 9.80 out of 12
Air Quality Not available.
Flu Activity Not available.
METAR KRRT 050714Z AUTO 00000KT 7SM CLR 18/16 A2991 RMK AO2

10-Day Weather Forecast

×

Almanac

Astronomy

Sep. 05, 2015 Rise Set
Actual Time
Civil Twilight
Nautical Twilight
Astronomical Twilight
Moon
Length of Visible Light
Length of Day
Tomorrow will be .
, % of the Moon is Illuminated

Today's Extremes

State Highs State Lows

Community

WunderPhotos

Upload Photos

1,852,430 photos uploaded!

WunderBlogs® & News

Nearby

Air Quality

  Air Quality AQ Index Pollutant
Not available.

Snow Depth

Station Depth Elevation

Earthquake Activity

City Distance Mag. Time & Date
Minimum magnitude displayed is 2.5.

Coastal Water Temperatures

Place Temperature

Stations

Nearby Weather Stations

Station Location Temp. Windchill Dew Point Humidity Wind Precip. Elev Updated Type